DAL2945 KATL-KATW
Flight info
| Callsign | DAL2945 |
|---|---|
| Flight time | 1h 47m |
| Altitude | 38000 |
| Route | VARNM2 RESPE IIU J89 BAE |
| Aircraft | B738/M-SDE2E3FGHIRWXY/LB1 |
Departure
| Time | 2026-05-07 18:51 |
|---|---|
| Airport | Hartsfield Jackson Atlanta International Airport (KATL) |
Arrival
| Time | 2026-05-07 20:39 |
|---|---|
| Airport | Appleton International Airport (KATW) |
| Time | Latitude | Longitude | Altitude | Speed | Heading |
|---|---|---|---|---|---|
| 2026-05-07 18:32 | 33.64134 | -84.43532 | 1005 ft | 0 kts | 271° |
| 2026-05-07 18:38 | 33.64134 | -84.43529 | 1005 ft | 3 kts | 271° |
| 2026-05-07 18:38 | 33.64133 | -84.43497 | 1005 ft | 4 kts | 271° |
| 2026-05-07 18:39 | 33.64132 | -84.43465 | 1005 ft | 4 kts | 271° |
| 2026-05-07 18:39 | 33.64132 | -84.43443 | 1005 ft | 1 kts | 271° |
| 2026-05-07 18:44 | 33.64133 | -84.43447 | 1005 ft | 3 kts | 287° |
| 2026-05-07 18:44 | 33.64170 | -84.43456 | 1005 ft | 10 kts | 357° |
| 2026-05-07 18:44 | 33.64247 | -84.43459 | 1005 ft | 11 kts | 358° |
| 2026-05-07 18:45 | 33.64325 | -84.43463 | 1005 ft | 11 kts | 357° |
| 2026-05-07 18:45 | 33.64402 | -84.43468 | 1005 ft | 11 kts | 358° |
| 2026-05-07 18:45 | 33.64451 | -84.43412 | 1005 ft | 11 kts | 71° |
| 2026-05-07 18:45 | 33.64457 | -84.43318 | 1006 ft | 11 kts | 89° |
| 2026-05-07 18:46 | 33.64458 | -84.43224 | 1006 ft | 11 kts | 89° |
| 2026-05-07 18:46 | 33.64459 | -84.43126 | 1006 ft | 15 kts | 89° |
| 2026-05-07 18:46 | 33.64460 | -84.42992 | 1005 ft | 16 kts | 89° |
| 2026-05-07 18:46 | 33.64461 | -84.42860 | 1005 ft | 16 kts | 90° |
| 2026-05-07 18:47 | 33.64463 | -84.42731 | 1005 ft | 15 kts | 86° |
| 2026-05-07 18:47 | 33.64468 | -84.42608 | 1005 ft | 15 kts | 87° |
| 2026-05-07 18:47 | 33.64466 | -84.42467 | 1005 ft | 19 kts | 88° |
| 2026-05-07 18:47 | 33.64471 | -84.42306 | 1005 ft | 19 kts | 88° |
| 2026-05-07 18:48 | 33.64504 | -84.42184 | 1005 ft | 22 kts | 55° |
| 2026-05-07 18:48 | 33.64541 | -84.42060 | 998 ft | 22 kts | 90° |
| 2026-05-07 18:48 | 33.64541 | -84.41880 | 1005 ft | 21 kts | 90° |
| 2026-05-07 18:48 | 33.64542 | -84.41705 | 1006 ft | 21 kts | 89° |
| 2026-05-07 18:49 | 33.64544 | -84.41521 | 1006 ft | 28 kts | 89° |
| 2026-05-07 18:49 | 33.64543 | -84.41282 | 1006 ft | 28 kts | 90° |
| 2026-05-07 18:49 | 33.64545 | -84.41055 | 1005 ft | 26 kts | 89° |
| 2026-05-07 18:49 | 33.64550 | -84.40843 | 1005 ft | 25 kts | 81° |
| 2026-05-07 18:50 | 33.64571 | -84.40650 | 1004 ft | 21 kts | 88° |
| 2026-05-07 18:50 | 33.64628 | -84.40576 | 1003 ft | 11 kts | 356° |
| 2026-05-07 18:50 | 33.64677 | -84.40632 | 1003 ft | 12 kts | 278° |
| 2026-05-07 18:50 | 33.64678 | -84.40892 | 1005 ft | 63 kts | 270° |
| 2026-05-07 18:51 | 33.64679 | -84.41690 | 1006 ft | 126 kts | 270° |
| 2026-05-07 18:51 | 33.64646 | -84.42943 | 1184 ft | 160 kts | 271° |
| 2026-05-07 18:51 | 33.64615 | -84.44270 | 1937 ft | 165 kts | 271° |
| 2026-05-07 18:51 | 33.64603 | -84.45192 | 2438 ft | 167 kts | 272° |
| 2026-05-07 18:52 | 33.64894 | -84.46651 | 2727 ft | 195 kts | 296° |
| 2026-05-07 18:52 | 33.65504 | -84.48163 | 3165 ft | 205 kts | 293° |
| 2026-05-07 18:52 | 33.66096 | -84.49731 | 3766 ft | 207 kts | 293° |
| 2026-05-07 18:52 | 33.66717 | -84.51377 | 4132 ft | 229 kts | 293° |
| 2026-05-07 18:53 | 33.67408 | -84.53201 | 4568 ft | 247 kts | 293° |
| 2026-05-07 18:53 | 33.68130 | -84.55099 | 5298 ft | 250 kts | 293° |
| 2026-05-07 18:53 | 33.69114 | -84.56806 | 6250 ft | 253 kts | 315° |
| 2026-05-07 18:53 | 33.70652 | -84.57883 | 7035 ft | 264 kts | 334° |
| 2026-05-07 18:54 | 33.72494 | -84.58239 | 7676 ft | 280 kts | 352° |
| 2026-05-07 18:54 | 33.74461 | -84.58203 | 8415 ft | 284 kts | 354° |
| 2026-05-07 18:54 | 33.76486 | -84.58151 | 9092 ft | 290 kts | 353° |
| 2026-05-07 18:54 | 33.78486 | -84.58112 | 9843 ft | 292 kts | 353° |
| 2026-05-07 18:55 | 33.80516 | -84.58079 | 10613 ft | 291 kts | 352° |
| 2026-05-07 18:55 | 33.82558 | -84.58070 | 11171 ft | 300 kts | 349° |
| 2026-05-07 18:55 | 33.84723 | -84.58105 | 11350 ft | 322 kts | 349° |
| 2026-05-07 18:55 | 33.87036 | -84.58173 | 11505 ft | 342 kts | 349° |
| 2026-05-07 18:56 | 33.89480 | -84.58257 | 11733 ft | 359 kts | 349° |
| 2026-05-07 18:56 | 33.92000 | -84.58337 | 12304 ft | 363 kts | 349° |
| 2026-05-07 18:56 | 33.94517 | -84.58407 | 13076 ft | 362 kts | 348° |
| 2026-05-07 18:56 | 33.97039 | -84.58477 | 13842 ft | 362 kts | 349° |
| 2026-05-07 18:57 | 33.99579 | -84.58554 | 14342 ft | 368 kts | 347° |
| 2026-05-07 18:57 | 34.02162 | -84.58635 | 14868 ft | 373 kts | 347° |
| 2026-05-07 18:57 | 34.04741 | -84.58713 | 15430 ft | 378 kts | 347° |
| 2026-05-07 18:57 | 34.07390 | -84.58793 | 15969 ft | 383 kts | 347° |
| 2026-05-07 18:58 | 34.10078 | -84.58874 | 16531 ft | 388 kts | 346° |
| 2026-05-07 18:58 | 34.12809 | -84.58958 | 16990 ft | 395 kts | 346° |
| 2026-05-07 18:58 | 34.15578 | -84.59042 | 17537 ft | 400 kts | 346° |
| 2026-05-07 18:58 | 34.18378 | -84.59125 | 18112 ft | 404 kts | 346° |
| 2026-05-07 18:59 | 34.21200 | -84.59208 | 18584 ft | 408 kts | 346° |
| 2026-05-07 18:59 | 34.24050 | -84.59293 | 19016 ft | 412 kts | 345° |
| 2026-05-07 18:59 | 34.26928 | -84.59380 | 19494 ft | 414 kts | 346° |
| 2026-05-07 18:59 | 34.29787 | -84.59576 | 19968 ft | 407 kts | 340° |
| 2026-05-07 19:00 | 34.32540 | -84.60119 | 20397 ft | 403 kts | 336° |
| 2026-05-07 19:00 | 34.35294 | -84.60831 | 20815 ft | 405 kts | 334° |
| 2026-05-07 19:00 | 34.38044 | -84.61589 | 21301 ft | 407 kts | 334° |
| 2026-05-07 19:00 | 34.40820 | -84.62351 | 21724 ft | 410 kts | 334° |
| 2026-05-07 19:01 | 34.43616 | -84.63099 | 22217 ft | 412 kts | 334° |
| 2026-05-07 19:01 | 34.46432 | -84.63830 | 22618 ft | 416 kts | 335° |
| 2026-05-07 19:01 | 34.49278 | -84.64550 | 23009 ft | 420 kts | 335° |
| 2026-05-07 19:01 | 34.52154 | -84.65266 | 23420 ft | 423 kts | 335° |
| 2026-05-07 19:02 | 34.55041 | -84.65980 | 23758 ft | 424 kts | 335° |
| 2026-05-07 19:02 | 34.57904 | -84.66692 | 24062 ft | 426 kts | 334° |
| 2026-05-07 19:02 | 34.60807 | -84.67411 | 24462 ft | 426 kts | 335° |
| 2026-05-07 19:02 | 34.63721 | -84.68124 | 24904 ft | 428 kts | 335° |
| 2026-05-07 19:03 | 34.66642 | -84.68841 | 25248 ft | 429 kts | 334° |
| 2026-05-07 19:03 | 34.69573 | -84.69564 | 25577 ft | 431 kts | 334° |
| 2026-05-07 19:03 | 34.72530 | -84.70296 | 25905 ft | 433 kts | 334° |
| 2026-05-07 19:03 | 34.75487 | -84.71028 | 26225 ft | 435 kts | 334° |
| 2026-05-07 19:04 | 34.78461 | -84.71766 | 26557 ft | 437 kts | 334° |
| 2026-05-07 19:04 | 34.81454 | -84.72510 | 26886 ft | 439 kts | 334° |
| 2026-05-07 19:04 | 34.84456 | -84.73254 | 27208 ft | 440 kts | 334° |
| 2026-05-07 19:04 | 34.87424 | -84.73990 | 27508 ft | 442 kts | 334° |
| 2026-05-07 19:05 | 34.90452 | -84.74745 | 27701 ft | 447 kts | 334° |
| 2026-05-07 19:05 | 34.93526 | -84.75516 | 27839 ft | 452 kts | 334° |
| 2026-05-07 19:05 | 34.96613 | -84.76284 | 28168 ft | 452 kts | 334° |
| 2026-05-07 19:05 | 34.99701 | -84.77049 | 28492 ft | 452 kts | 334° |
| 2026-05-07 19:06 | 35.02791 | -84.77817 | 28750 ft | 453 kts | 334° |
| 2026-05-07 19:06 | 35.08975 | -84.79361 | 29412 ft | 453 kts | 334° |
| 2026-05-07 19:06 | 35.12064 | -84.80128 | 29834 ft | 451 kts | 333° |
| 2026-05-07 19:07 | 35.15097 | -84.80883 | 30255 ft | 450 kts | 333° |
| 2026-05-07 19:07 | 35.18150 | -84.81644 | 30664 ft | 446 kts | 333° |
| 2026-05-07 19:07 | 35.21179 | -84.82399 | 31069 ft | 443 kts | 332° |
| 2026-05-07 19:07 | 35.24196 | -84.83155 | 31427 ft | 442 kts | 332° |
| 2026-05-07 19:08 | 35.27207 | -84.83913 | 31761 ft | 441 kts | 332° |
| 2026-05-07 19:08 | 35.30205 | -84.84670 | 32119 ft | 439 kts | 332° |
| 2026-05-07 19:08 | 35.33199 | -84.85423 | 32491 ft | 437 kts | 332° |
| 2026-05-07 19:08 | 35.36169 | -84.86164 | 32863 ft | 435 kts | 332° |
| 2026-05-07 19:09 | 35.39132 | -84.86908 | 33181 ft | 433 kts | 332° |
| 2026-05-07 19:09 | 35.42044 | -84.87647 | 33683 ft | 430 kts | 331° |
| 2026-05-07 19:09 | 35.44963 | -84.88385 | 34072 ft | 427 kts | 331° |
| 2026-05-07 19:09 | 35.47886 | -84.89126 | 34300 ft | 428 kts | 331° |
| 2026-05-07 19:10 | 35.50803 | -84.89870 | 34484 ft | 429 kts | 331° |
| 2026-05-07 19:10 | 35.53732 | -84.90614 | 34717 ft | 429 kts | 331° |
| 2026-05-07 19:10 | 35.56655 | -84.91352 | 34989 ft | 428 kts | 331° |
| 2026-05-07 19:10 | 35.59576 | -84.92089 | 35226 ft | 428 kts | 331° |
| 2026-05-07 19:11 | 35.62503 | -84.92832 | 35391 ft | 429 kts | 331° |
| 2026-05-07 19:11 | 35.65432 | -84.93583 | 35557 ft | 430 kts | 331° |
| 2026-05-07 19:11 | 35.68346 | -84.94313 | 36010 ft | 425 kts | 331° |
| 2026-05-07 19:11 | 35.71232 | -84.95033 | 36334 ft | 422 kts | 331° |
| 2026-05-07 19:12 | 35.74083 | -84.95753 | 36478 ft | 424 kts | 331° |
| 2026-05-07 19:12 | 35.76974 | -84.96491 | 36639 ft | 425 kts | 331° |
| 2026-05-07 19:12 | 35.79871 | -84.97231 | 36889 ft | 425 kts | 331° |
| 2026-05-07 19:12 | 35.82762 | -84.97963 | 37192 ft | 423 kts | 331° |
| 2026-05-07 19:13 | 35.85645 | -84.98690 | 37447 ft | 422 kts | 331° |
| 2026-05-07 19:13 | 35.88518 | -84.99425 | 37613 ft | 422 kts | 331° |
| 2026-05-07 19:13 | 35.91399 | -85.00164 | 37793 ft | 422 kts | 331° |
| 2026-05-07 19:13 | 35.94276 | -85.00901 | 37998 ft | 422 kts | 331° |
| 2026-05-07 19:14 | 36.00058 | -85.02386 | 38037 ft | 425 kts | 331° |
| 2026-05-07 19:14 | 36.05788 | -85.03847 | 38025 ft | 421 kts | 331° |
| 2026-05-07 19:15 | 36.11502 | -85.05304 | 38055 ft | 418 kts | 330° |
| 2026-05-07 19:15 | 36.17182 | -85.06763 | 38069 ft | 416 kts | 330° |
| 2026-05-07 19:16 | 36.22855 | -85.08224 | 38025 ft | 415 kts | 330° |
| 2026-05-07 19:16 | 36.28495 | -85.09682 | 38025 ft | 413 kts | 330° |
| 2026-05-07 19:17 | 36.34111 | -85.11127 | 38017 ft | 411 kts | 330° |
| 2026-05-07 19:17 | 36.39703 | -85.12573 | 38034 ft | 409 kts | 330° |
| 2026-05-07 19:18 | 36.45283 | -85.14013 | 38049 ft | 408 kts | 330° |
| 2026-05-07 19:18 | 36.50852 | -85.15461 | 38020 ft | 409 kts | 330° |
| 2026-05-07 19:19 | 36.56396 | -85.16901 | 38041 ft | 410 kts | 330° |
| 2026-05-07 19:19 | 36.61998 | -85.18359 | 38034 ft | 412 kts | 330° |
| 2026-05-07 19:20 | 36.67627 | -85.19824 | 38082 ft | 414 kts | 330° |
| 2026-05-07 19:20 | 36.73249 | -85.21290 | 38046 ft | 416 kts | 330° |
| 2026-05-07 19:21 | 36.78957 | -85.22777 | 38042 ft | 417 kts | 330° |
| 2026-05-07 19:21 | 36.84595 | -85.24247 | 38043 ft | 417 kts | 330° |
| 2026-05-07 19:22 | 36.90261 | -85.25725 | 38112 ft | 415 kts | 330° |
| 2026-05-07 19:22 | 36.95930 | -85.27214 | 38052 ft | 416 kts | 331° |
| 2026-05-07 19:23 | 37.01590 | -85.28700 | 38050 ft | 415 kts | 330° |
| 2026-05-07 19:23 | 37.07241 | -85.30184 | 38052 ft | 414 kts | 330° |
| 2026-05-07 19:24 | 37.12879 | -85.31668 | 38049 ft | 414 kts | 330° |
| 2026-05-07 19:24 | 37.18521 | -85.33160 | 38056 ft | 415 kts | 331° |
| 2026-05-07 19:25 | 37.24178 | -85.34655 | 38043 ft | 415 kts | 332° |
| 2026-05-07 19:25 | 37.29814 | -85.36146 | 38044 ft | 416 kts | 332° |
| 2026-05-07 19:26 | 37.35486 | -85.37648 | 38043 ft | 416 kts | 332° |
| 2026-05-07 19:26 | 37.41167 | -85.39157 | 38073 ft | 418 kts | 333° |
| 2026-05-07 19:27 | 37.46876 | -85.40676 | 38054 ft | 420 kts | 333° |
| 2026-05-07 19:27 | 37.52584 | -85.42196 | 38054 ft | 422 kts | 333° |
| 2026-05-07 19:28 | 37.58357 | -85.43736 | 38049 ft | 424 kts | 333° |
| 2026-05-07 19:28 | 37.64144 | -85.45279 | 38078 ft | 426 kts | 334° |
| 2026-05-07 19:29 | 37.69933 | -85.46829 | 38048 ft | 428 kts | 334° |
| 2026-05-07 19:29 | 37.75786 | -85.48398 | 38038 ft | 430 kts | 334° |
| 2026-05-07 19:30 | 37.80651 | -85.49701 | 38024 ft | 430 kts | 334° |
| 2026-05-07 19:30 | 37.86062 | -85.51152 | 38031 ft | 430 kts | 334° |
| 2026-05-07 19:31 | 37.91927 | -85.52732 | 38037 ft | 431 kts | 335° |
| 2026-05-07 19:31 | 37.97787 | -85.54312 | 38048 ft | 430 kts | 335° |
| 2026-05-07 19:32 | 38.03638 | -85.55893 | 38047 ft | 429 kts | 335° |
| 2026-05-07 19:32 | 38.09462 | -85.57500 | 38038 ft | 424 kts | 332° |
| 2026-05-07 19:33 | 38.12193 | -85.58688 | 38070 ft | 407 kts | 323° |
| 2026-05-07 19:33 | 38.14756 | -85.60195 | 38066 ft | 405 kts | 322° |
| 2026-05-07 19:33 | 38.19813 | -85.63220 | 38054 ft | 404 kts | 322° |
| 2026-05-07 19:34 | 38.24912 | -85.66253 | 38051 ft | 404 kts | 322° |
| 2026-05-07 19:34 | 38.30018 | -85.69271 | 38058 ft | 404 kts | 322° |
| 2026-05-07 19:35 | 38.35120 | -85.72283 | 38048 ft | 404 kts | 323° |
| 2026-05-07 19:35 | 38.40190 | -85.75279 | 38046 ft | 404 kts | 323° |
| 2026-05-07 19:36 | 38.45304 | -85.78306 | 38049 ft | 405 kts | 322° |
| 2026-05-07 19:36 | 38.49562 | -85.80829 | 38046 ft | 405 kts | 322° |
| 2026-05-07 19:37 | 38.55057 | -85.84091 | 38056 ft | 406 kts | 323° |
| 2026-05-07 19:37 | 38.60194 | -85.87146 | 38099 ft | 408 kts | 322° |
| 2026-05-07 19:38 | 38.64491 | -85.89697 | 38051 ft | 409 kts | 323° |
| 2026-05-07 19:38 | 38.69655 | -85.92777 | 38052 ft | 409 kts | 322° |
| 2026-05-07 19:39 | 38.74813 | -85.95861 | 38043 ft | 409 kts | 322° |
| 2026-05-07 19:39 | 38.77399 | -85.97408 | 38047 ft | 409 kts | 322° |
| 2026-05-07 19:40 | 38.81064 | -85.99602 | 38058 ft | 408 kts | 322° |
| 2026-05-07 19:40 | 38.86216 | -86.02692 | 38052 ft | 409 kts | 322° |
| 2026-05-07 19:41 | 38.91368 | -86.05787 | 38048 ft | 408 kts | 322° |
| 2026-05-07 19:41 | 38.96513 | -86.08879 | 38050 ft | 407 kts | 322° |
| 2026-05-07 19:42 | 39.01603 | -86.11938 | 38057 ft | 406 kts | 322° |
| 2026-05-07 19:42 | 39.04166 | -86.13477 | 37554 ft | 406 kts | 327° |
| 2026-05-07 19:42 | 39.06715 | -86.15004 | 38209 ft | 403 kts | 322° |
| 2026-05-07 19:43 | 39.11816 | -86.18079 | 38077 ft | 407 kts | 322° |
| 2026-05-07 19:43 | 39.16950 | -86.21185 | 38061 ft | 407 kts | 322° |
| 2026-05-07 19:44 | 39.22085 | -86.24287 | 38063 ft | 407 kts | 322° |
| 2026-05-07 19:44 | 39.27224 | -86.27400 | 38047 ft | 408 kts | 322° |
| 2026-05-07 19:45 | 39.32370 | -86.30523 | 38058 ft | 409 kts | 322° |
| 2026-05-07 19:45 | 39.37487 | -86.33634 | 38038 ft | 409 kts | 322° |
| 2026-05-07 19:46 | 39.42643 | -86.36771 | 38040 ft | 409 kts | 322° |
| 2026-05-07 19:46 | 39.47790 | -86.39909 | 38038 ft | 408 kts | 322° |
| 2026-05-07 19:47 | 39.52926 | -86.43040 | 38130 ft | 407 kts | 322° |
| 2026-05-07 19:47 | 39.58029 | -86.46164 | 38070 ft | 408 kts | 322° |
| 2026-05-07 19:48 | 39.63157 | -86.49308 | 38055 ft | 407 kts | 322° |
| 2026-05-07 19:48 | 39.68278 | -86.52452 | 38050 ft | 407 kts | 322° |
| 2026-05-07 19:49 | 39.73359 | -86.55651 | 37914 ft | 407 kts | 322° |
| 2026-05-07 19:49 | 39.75913 | -86.57232 | 38086 ft | 405 kts | 323° |
| 2026-05-07 19:49 | 39.78449 | -86.58769 | 38030 ft | 407 kts | 323° |
| 2026-05-07 19:50 | 39.83578 | -86.61888 | 38044 ft | 407 kts | 323° |
| 2026-05-07 19:50 | 39.88700 | -86.65042 | 38036 ft | 407 kts | 322° |
| 2026-05-07 19:51 | 39.93829 | -86.68219 | 38032 ft | 408 kts | 322° |
| 2026-05-07 19:51 | 39.98943 | -86.71391 | 38064 ft | 410 kts | 323° |
| 2026-05-07 19:52 | 40.03363 | -86.74136 | 38038 ft | 411 kts | 323° |
| 2026-05-07 19:52 | 40.07502 | -86.76713 | 38028 ft | 412 kts | 323° |
| 2026-05-07 19:53 | 40.12679 | -86.79944 | 38021 ft | 412 kts | 323° |
| 2026-05-07 19:53 | 40.17859 | -86.83183 | 38018 ft | 412 kts | 323° |
| 2026-05-07 19:54 | 40.23020 | -86.86416 | 38069 ft | 413 kts | 323° |
| 2026-05-07 19:54 | 40.28213 | -86.89668 | 38032 ft | 414 kts | 323° |
| 2026-05-07 19:55 | 40.33418 | -86.92925 | 38013 ft | 413 kts | 323° |
| 2026-05-07 19:55 | 40.38568 | -86.96156 | 38016 ft | 412 kts | 323° |
| 2026-05-07 19:56 | 40.43743 | -86.99412 | 38080 ft | 411 kts | 323° |
| 2026-05-07 19:56 | 40.48911 | -87.02672 | 38030 ft | 411 kts | 323° |
| 2026-05-07 19:57 | 40.54069 | -87.05925 | 38009 ft | 411 kts | 323° |
| 2026-05-07 19:57 | 40.59337 | -87.08942 | 38015 ft | 416 kts | 328° |
| 2026-05-07 19:58 | 40.64743 | -87.11667 | 38008 ft | 415 kts | 328° |
| 2026-05-07 19:58 | 40.70092 | -87.14393 | 38023 ft | 414 kts | 327° |
| 2026-05-07 19:59 | 40.75451 | -87.17174 | 38018 ft | 413 kts | 327° |
| 2026-05-07 19:59 | 40.80804 | -87.19960 | 38013 ft | 413 kts | 327° |
| 2026-05-07 20:00 | 40.86160 | -87.22746 | 38012 ft | 413 kts | 327° |
| 2026-05-07 20:00 | 40.91480 | -87.25519 | 38010 ft | 415 kts | 327° |
| 2026-05-07 20:01 | 40.96848 | -87.28323 | 38004 ft | 415 kts | 327° |
| 2026-05-07 20:01 | 41.02224 | -87.31137 | 37996 ft | 415 kts | 327° |
| 2026-05-07 20:02 | 41.07595 | -87.33954 | 37999 ft | 415 kts | 327° |
| 2026-05-07 20:02 | 41.12966 | -87.36778 | 38012 ft | 416 kts | 328° |
| 2026-05-07 20:03 | 41.18353 | -87.39611 | 37987 ft | 416 kts | 328° |
| 2026-05-07 20:03 | 41.23738 | -87.42443 | 37982 ft | 415 kts | 328° |
| 2026-05-07 20:04 | 41.29108 | -87.45274 | 37983 ft | 415 kts | 328° |
| 2026-05-07 20:04 | 41.34449 | -87.48099 | 37994 ft | 416 kts | 328° |
| 2026-05-07 20:05 | 41.39830 | -87.50951 | 37985 ft | 416 kts | 328° |
| 2026-05-07 20:05 | 41.45223 | -87.53814 | 37985 ft | 417 kts | 328° |
| 2026-05-07 20:06 | 41.50622 | -87.56685 | 37986 ft | 418 kts | 328° |
| 2026-05-07 20:06 | 41.56023 | -87.59562 | 38012 ft | 419 kts | 329° |
| 2026-05-07 20:07 | 41.61446 | -87.62457 | 37998 ft | 420 kts | 329° |
| 2026-05-07 20:07 | 41.66852 | -87.65347 | 37948 ft | 421 kts | 329° |
| 2026-05-07 20:08 | 41.72300 | -87.68264 | 37942 ft | 421 kts | 329° |
| 2026-05-07 20:08 | 41.77748 | -87.71187 | 37972 ft | 422 kts | 329° |
| 2026-05-07 20:09 | 41.83203 | -87.74119 | 37954 ft | 422 kts | 329° |
| 2026-05-07 20:10 | 41.91358 | -87.78513 | 37919 ft | 420 kts | 329° |
| 2026-05-07 20:10 | 41.96774 | -87.81437 | 37958 ft | 419 kts | 329° |
| 2026-05-07 20:11 | 42.02178 | -87.84363 | 37931 ft | 418 kts | 329° |
| 2026-05-07 20:11 | 42.07571 | -87.87288 | 37944 ft | 418 kts | 329° |
| 2026-05-07 20:12 | 42.12955 | -87.90214 | 37931 ft | 417 kts | 329° |
| 2026-05-07 20:12 | 42.18322 | -87.93138 | 37488 ft | 422 kts | 330° |
| 2026-05-07 20:12 | 42.21036 | -87.94615 | 36935 ft | 420 kts | 330° |
| 2026-05-07 20:13 | 42.23803 | -87.95945 | 36364 ft | 425 kts | 335° |
| 2026-05-07 20:13 | 42.26668 | -87.97044 | 35724 ft | 428 kts | 336° |
| 2026-05-07 20:13 | 42.29552 | -87.98066 | 35081 ft | 429 kts | 336° |
| 2026-05-07 20:13 | 42.32458 | -87.99077 | 34412 ft | 430 kts | 336° |
| 2026-05-07 20:14 | 42.35359 | -88.00094 | 33700 ft | 431 kts | 336° |
| 2026-05-07 20:14 | 42.38265 | -88.01129 | 32944 ft | 431 kts | 336° |
| 2026-05-07 20:14 | 42.41160 | -88.02171 | 32293 ft | 430 kts | 337° |
| 2026-05-07 20:14 | 42.44031 | -88.03214 | 31816 ft | 425 kts | 337° |
| 2026-05-07 20:15 | 42.46872 | -88.04253 | 31316 ft | 420 kts | 337° |
| 2026-05-07 20:15 | 42.49677 | -88.05283 | 30841 ft | 416 kts | 336° |
| 2026-05-07 20:15 | 42.52423 | -88.06295 | 30376 ft | 411 kts | 336° |
| 2026-05-07 20:15 | 42.55170 | -88.07309 | 29893 ft | 407 kts | 336° |
| 2026-05-07 20:16 | 42.57888 | -88.08314 | 29347 ft | 402 kts | 336° |
| 2026-05-07 20:16 | 42.60566 | -88.09304 | 28895 ft | 396 kts | 338° |
| 2026-05-07 20:16 | 42.63207 | -88.10281 | 28405 ft | 391 kts | 338° |
| 2026-05-07 20:16 | 42.65817 | -88.11247 | 27941 ft | 385 kts | 338° |
| 2026-05-07 20:17 | 42.68389 | -88.12201 | 27483 ft | 381 kts | 338° |
| 2026-05-07 20:17 | 42.70931 | -88.13145 | 26978 ft | 377 kts | 338° |
| 2026-05-07 20:17 | 42.73444 | -88.14079 | 26530 ft | 372 kts | 338° |
| 2026-05-07 20:17 | 42.75932 | -88.15005 | 26075 ft | 369 kts | 338° |
| 2026-05-07 20:18 | 42.78401 | -88.15924 | 25638 ft | 365 kts | 338° |
| 2026-05-07 20:18 | 42.80809 | -88.16821 | 25200 ft | 362 kts | 338° |
| 2026-05-07 20:18 | 42.83226 | -88.17722 | 24771 ft | 359 kts | 338° |
| 2026-05-07 20:18 | 42.85623 | -88.18617 | 24347 ft | 356 kts | 339° |
| 2026-05-07 20:19 | 42.88005 | -88.19506 | 23922 ft | 353 kts | 339° |
| 2026-05-07 20:19 | 42.90369 | -88.20390 | 23516 ft | 351 kts | 339° |
| 2026-05-07 20:19 | 42.92715 | -88.21267 | 23010 ft | 349 kts | 339° |
| 2026-05-07 20:19 | 42.95040 | -88.22137 | 22588 ft | 345 kts | 339° |
| 2026-05-07 20:20 | 42.97344 | -88.23000 | 22168 ft | 341 kts | 339° |
| 2026-05-07 20:20 | 42.99628 | -88.23856 | 21752 ft | 338 kts | 339° |
| 2026-05-07 20:20 | 43.01890 | -88.24705 | 21336 ft | 336 kts | 339° |
| 2026-05-07 20:20 | 43.04133 | -88.25549 | 20911 ft | 333 kts | 339° |
| 2026-05-07 20:21 | 43.06367 | -88.26388 | 20486 ft | 332 kts | 339° |
| 2026-05-07 20:21 | 43.08559 | -88.27211 | 20092 ft | 330 kts | 339° |
| 2026-05-07 20:21 | 43.10775 | -88.28020 | 19676 ft | 330 kts | 341° |
| 2026-05-07 20:21 | 43.13068 | -88.28439 | 19335 ft | 334 kts | 352° |
| 2026-05-07 20:22 | 43.15390 | -88.28458 | 18970 ft | 335 kts | 353° |
| 2026-05-07 20:22 | 43.17729 | -88.28423 | 18572 ft | 336 kts | 354° |
| 2026-05-07 20:22 | 43.20089 | -88.28379 | 18169 ft | 341 kts | 354° |
| 2026-05-07 20:22 | 43.22492 | -88.28341 | 17738 ft | 349 kts | 354° |
| 2026-05-07 20:23 | 43.24098 | -88.28317 | 17429 ft | 349 kts | 354° |
| 2026-05-07 20:23 | 43.26520 | -88.28281 | 17025 ft | 345 kts | 354° |
| 2026-05-07 20:23 | 43.28911 | -88.28248 | 16596 ft | 342 kts | 354° |
| 2026-05-07 20:23 | 43.32050 | -88.28211 | 16048 ft | 339 kts | 354° |
| 2026-05-07 20:24 | 43.34399 | -88.28186 | 15638 ft | 336 kts | 354° |
| 2026-05-07 20:24 | 43.36735 | -88.28164 | 15226 ft | 334 kts | 354° |
| 2026-05-07 20:24 | 43.38301 | -88.28155 | 14948 ft | 332 kts | 354° |
| 2026-05-07 20:24 | 43.40581 | -88.28135 | 14564 ft | 331 kts | 355° |
| 2026-05-07 20:25 | 43.42877 | -88.28113 | 14181 ft | 329 kts | 354° |
| 2026-05-07 20:25 | 43.45165 | -88.28091 | 13777 ft | 328 kts | 354° |
| 2026-05-07 20:25 | 43.47447 | -88.28070 | 13327 ft | 327 kts | 354° |
| 2026-05-07 20:25 | 43.49715 | -88.28049 | 12890 ft | 325 kts | 355° |
| 2026-05-07 20:26 | 43.51971 | -88.28029 | 12485 ft | 324 kts | 355° |
| 2026-05-07 20:26 | 43.54214 | -88.28009 | 12087 ft | 321 kts | 355° |
| 2026-05-07 20:26 | 43.56447 | -88.27989 | 11695 ft | 319 kts | 355° |
| 2026-05-07 20:26 | 43.58666 | -88.27970 | 11307 ft | 317 kts | 355° |
| 2026-05-07 20:27 | 43.60868 | -88.27951 | 10927 ft | 316 kts | 355° |
| 2026-05-07 20:27 | 43.63057 | -88.27935 | 10682 ft | 310 kts | 355° |
| 2026-05-07 20:27 | 43.65186 | -88.27911 | 10531 ft | 302 kts | 355° |
| 2026-05-07 20:27 | 43.67257 | -88.27889 | 10392 ft | 294 kts | 355° |
| 2026-05-07 20:28 | 43.69277 | -88.27870 | 10253 ft | 286 kts | 355° |
| 2026-05-07 20:28 | 43.71247 | -88.27851 | 10125 ft | 279 kts | 355° |
| 2026-05-07 20:28 | 43.73143 | -88.27835 | 10002 ft | 272 kts | 355° |
| 2026-05-07 20:28 | 43.75026 | -88.27819 | 9754 ft | 270 kts | 355° |
| 2026-05-07 20:29 | 43.76904 | -88.27805 | 9473 ft | 269 kts | 355° |
| 2026-05-07 20:29 | 43.78778 | -88.27791 | 9202 ft | 269 kts | 355° |
| 2026-05-07 20:29 | 43.80645 | -88.27775 | 8924 ft | 268 kts | 355° |
| 2026-05-07 20:29 | 43.82507 | -88.27759 | 8655 ft | 267 kts | 355° |
| 2026-05-07 20:30 | 43.84362 | -88.27744 | 8370 ft | 266 kts | 355° |
| 2026-05-07 20:30 | 43.86212 | -88.27728 | 8099 ft | 265 kts | 355° |
| 2026-05-07 20:30 | 43.88063 | -88.27713 | 7838 ft | 268 kts | 355° |
| 2026-05-07 20:30 | 43.89956 | -88.27698 | 7567 ft | 276 kts | 356° |
| 2026-05-07 20:31 | 43.91893 | -88.27683 | 7286 ft | 281 kts | 356° |
| 2026-05-07 20:31 | 43.93866 | -88.27666 | 6992 ft | 285 kts | 356° |
| 2026-05-07 20:31 | 43.95819 | -88.27647 | 6680 ft | 283 kts | 356° |
| 2026-05-07 20:31 | 43.97771 | -88.27627 | 6390 ft | 278 kts | 356° |
| 2026-05-07 20:32 | 43.99673 | -88.27604 | 6079 ft | 268 kts | 357° |
| 2026-05-07 20:32 | 44.01507 | -88.27583 | 5791 ft | 258 kts | 356° |
| 2026-05-07 20:32 | 44.03270 | -88.27566 | 5527 ft | 249 kts | 356° |
| 2026-05-07 20:32 | 44.04974 | -88.27552 | 5266 ft | 240 kts | 356° |
| 2026-05-07 20:33 | 44.06620 | -88.27538 | 5031 ft | 233 kts | 356° |
| 2026-05-07 20:33 | 44.07995 | -88.27527 | 4856 ft | 233 kts | 356° |
| 2026-05-07 20:33 | 44.09622 | -88.27514 | 4773 ft | 233 kts | 356° |
| 2026-05-07 20:33 | 44.11223 | -88.27498 | 4655 ft | 226 kts | 356° |
| 2026-05-07 20:34 | 44.12773 | -88.27483 | 4547 ft | 220 kts | 356° |
| 2026-05-07 20:34 | 44.14285 | -88.27468 | 4456 ft | 216 kts | 356° |
| 2026-05-07 20:34 | 44.15780 | -88.27484 | 4364 ft | 214 kts | 349° |
| 2026-05-07 20:34 | 44.17051 | -88.28327 | 4178 ft | 205 kts | 308° |
| 2026-05-07 20:35 | 44.17840 | -88.29974 | 3984 ft | 207 kts | 301° |
| 2026-05-07 20:35 | 44.18606 | -88.31680 | 3740 ft | 208 kts | 298° |
| 2026-05-07 20:35 | 44.19282 | -88.33455 | 3569 ft | 204 kts | 295° |
| 2026-05-07 20:35 | 44.19896 | -88.35204 | 3410 ft | 199 kts | 295° |
| 2026-05-07 20:36 | 44.20493 | -88.36917 | 3160 ft | 195 kts | 295° |
| 2026-05-07 20:36 | 44.21076 | -88.38588 | 2901 ft | 188 kts | 295° |
| 2026-05-07 20:36 | 44.21634 | -88.40182 | 2634 ft | 177 kts | 295° |
| 2026-05-07 20:36 | 44.22156 | -88.41675 | 2423 ft | 165 kts | 295° |
| 2026-05-07 20:37 | 44.22640 | -88.43058 | 2206 ft | 152 kts | 295° |
| 2026-05-07 20:37 | 44.23076 | -88.44306 | 1986 ft | 137 kts | 295° |
| 2026-05-07 20:37 | 44.23487 | -88.45479 | 1780 ft | 133 kts | 295° |
| 2026-05-07 20:37 | 44.23912 | -88.46694 | 1600 ft | 147 kts | 295° |
| 2026-05-07 20:38 | 44.24366 | -88.47995 | 1364 ft | 148 kts | 294° |
| 2026-05-07 20:38 | 44.24817 | -88.49270 | 1191 ft | 147 kts | 294° |
| 2026-05-07 20:38 | 44.25264 | -88.50536 | 966 ft | 148 kts | 295° |
| 2026-05-07 20:38 | 44.25694 | -88.51770 | 897 ft | 124 kts | 296° |
| 2026-05-07 20:39 | 44.25906 | -88.52368 | 902 ft | 34 kts | 292° |
| 2026-05-07 20:39 | 44.26027 | -88.52424 | 906 ft | 20 kts | 59° |
| 2026-05-07 20:39 | 44.25984 | -88.52248 | 902 ft | 19 kts | 119° |
| 2026-05-07 20:39 | 44.25925 | -88.52082 | 899 ft | 19 kts | 116° |
| 2026-05-07 20:40 | 44.25868 | -88.51924 | 900 ft | 18 kts | 117° |
| 2026-05-07 20:40 | 44.25863 | -88.51775 | 897 ft | 17 kts | 28° |
| 2026-05-07 20:40 | 44.25973 | -88.51711 | 896 ft | 18 kts | 32° |
| 2026-05-07 20:40 | 44.26076 | -88.51636 | 894 ft | 18 kts | 24° |
| 2026-05-07 20:41 | 44.26122 | -88.51522 | 889 ft | 17 kts | 142° |
| 2026-05-07 20:41 | 44.26028 | -88.51566 | 889 ft | 8 kts | 202° |
| 2026-05-07 20:41 | 44.26021 | -88.51492 | 888 ft | 12 kts | 95° |
| 2026-05-07 20:41 | 44.26020 | -88.51487 | 888 ft | 0 kts | 96° |